sensor_id;sensor_type;location;lat;lon;timestamp;temperature;humidity
16313;DHT22;8265;52.622;13.296;2022-08-11T00:00:35;17.30;99.90
16313;DHT22;8265;52.622;13.296;2022-08-11T00:05:55;17.40;99.90
16313;DHT22;8265;52.622;13.296;2022-08-11T00:11:16;17.30;99.90
16313;DHT22;8265;52.622;13.296;2022-08-11T00:16:37;17.40;99.90
16313;DHT22;8265;52.622;13.296;2022-08-11T00:21:58;17.40;99.90
16313;DHT22;8265;52.622;13.296;2022-08-11T00:27:19;17.40;99.90
16313;DHT22;8265;52.622;13.296;2022-08-11T00:32:41;17.30;99.90
16313;DHT22;8265;52.622;13.296;2022-08-11T00:38:01;17.30;99.90
16313;DHT22;8265;52.622;13.296;2022-08-11T00:43:34;17.20;99.90
16313;DHT22;8265;52.622;13.296;2022-08-11T00:48:49;17.10;99.90
16313;DHT22;8265;52.622;13.296;2022-08-11T00:54:07;17.00;99.90
16313;DHT22;8265;52.622;13.296;2022-08-11T01:10:28;16.70;99.90
16313;DHT22;8265;52.622;13.296;2022-08-11T01:21:04;16.50;99.90
16313;DHT22;8265;52.622;13.296;2022-08-11T01:26:49;16.60;99.90
16313;DHT22;8265;52.622;13.296;2022-08-11T01:37:17;16.50;99.90
16313;DHT22;8265;52.622;13.296;2022-08-11T01:43:07;16.40;99.90
16313;DHT22;8265;52.622;13.296;2022-08-11T01:47:36;16.10;99.90
16313;DHT22;8265;52.622;13.296;2022-08-11T01:53:03;16.00;99.90
16313;DHT22;8265;52.622;13.296;2022-08-11T01:58:18;16.00;99.90
16313;DHT22;8265;52.622;13.296;2022-08-11T02:03:42;16.10;99.90
16313;DHT22;8265;52.622;13.296;2022-08-11T02:09:01;15.90;99.90
16313;DHT22;8265;52.622;13.296;2022-08-11T02:14:23;16.00;99.90
16313;DHT22;8265;52.622;13.296;2022-08-11T02:19:48;15.80;99.90
16313;DHT22;8265;52.622;13.296;2022-08-11T02:25:03;15.60;99.90
16313;DHT22;8265;52.622;13.296;2022-08-11T02:30:23;15.70;99.90
16313;DHT22;8265;52.622;13.296;2022-08-11T02:35:45;15.60;99.90
16313;DHT22;8265;52.622;13.296;2022-08-11T02:41:07;15.50;99.90
16313;DHT22;8265;52.622;13.296;2022-08-11T02:46:25;15.40;99.90
16313;DHT22;8265;52.622;13.296;2022-08-11T02:51:53;15.20;99.90
16313;DHT22;8265;52.622;13.296;2022-08-11T02:57:08;15.10;99.90
16313;DHT22;8265;52.622;13.296;2022-08-11T03:02:45;15.20;99.90
16313;DHT22;8265;52.622;13.296;2022-08-11T03:13:11;15.10;99.90
16313;DHT22;8265;52.622;13.296;2022-08-11T03:18:32;14.90;99.90
16313;DHT22;8265;52.622;13.296;2022-08-11T03:23:54;14.80;99.90
16313;DHT22;8265;52.622;13.296;2022-08-11T03:29:15;14.80;99.90
16313;DHT22;8265;52.622;13.296;2022-08-11T03:34:33;14.70;99.90
16313;DHT22;8265;52.622;13.296;2022-08-11T03:39:56;14.70;99.90
16313;DHT22;8265;52.622;13.296;2022-08-11T03:45:20;14.70;99.90
16313;DHT22;8265;52.622;13.296;2022-08-11T03:50:56;14.50;99.90
16313;DHT22;8265;52.622;13.296;2022-08-11T04:01:55;14.60;99.90
16313;DHT22;8265;52.622;13.296;2022-08-11T04:17:42;14.60;99.90
16313;DHT22;8265;52.622;13.296;2022-08-11T04:23:24;14.70;99.90
16313;DHT22;8265;52.622;13.296;2022-08-11T04:33:57;14.70;99.90
16313;DHT22;8265;52.622;13.296;2022-08-11T04:39:03;14.70;99.90
16313;DHT22;8265;52.622;13.296;2022-08-11T04:54:53;15.00;99.90
16313;DHT22;8265;52.622;13.296;2022-08-11T05:00:09;15.20;99.90
16313;DHT22;8265;52.622;13.296;2022-08-11T05:05:39;15.40;99.90
16313;DHT22;8265;52.622;13.296;2022-08-11T05:10:59;15.70;99.90
16313;DHT22;8265;52.622;13.296;2022-08-11T05:16:12;15.90;99.90
16313;DHT22;8265;52.622;13.296;2022-08-11T05:21:32;16.10;99.90
16313;DHT22;8265;52.622;13.296;2022-08-11T05:26:53;16.60;99.90
16313;DHT22;8265;52.622;13.296;2022-08-11T05:32:15;16.90;99.90
16313;DHT22;8265;52.622;13.296;2022-08-11T05:37:40;17.10;99.90
16313;DHT22;8265;52.622;13.296;2022-08-11T05:42:57;17.20;99.90
16313;DHT22;8265;52.622;13.296;2022-08-11T05:48:17;17.40;99.90
16313;DHT22;8265;52.622;13.296;2022-08-11T05:53:49;17.50;99.90
16313;DHT22;8265;52.622;13.296;2022-08-11T05:58:59;17.60;99.90
16313;DHT22;8265;52.622;13.296;2022-08-11T06:04:21;17.80;99.90
16313;DHT22;8265;52.622;13.296;2022-08-11T06:09:46;18.10;99.90
16313;DHT22;8265;52.622;13.296;2022-08-11T06:15:03;18.40;99.90
16313;DHT22;8265;52.622;13.296;2022-08-11T06:20:22;18.60;99.90
16313;DHT22;8265;52.622;13.296;2022-08-11T06:25:43;18.90;99.90
16313;DHT22;8265;52.622;13.296;2022-08-11T06:31:10;19.00;99.90
16313;DHT22;8265;52.622;13.296;2022-08-11T06:36:29;19.30;99.90
16313;DHT22;8265;52.622;13.296;2022-08-11T06:41:47;19.50;99.90
16313;DHT22;8265;52.622;13.296;2022-08-11T06:47:09;19.70;99.90
16313;DHT22;8265;52.622;13.296;2022-08-11T06:52:33;19.90;99.90
16313;DHT22;8265;52.622;13.296;2022-08-11T06:57:49;20.10;99.90
16313;DHT22;8265;52.622;13.296;2022-08-11T07:03:11;20.40;99.90
16313;DHT22;8265;52.622;13.296;2022-08-11T07:09:02;20.70;99.90
16313;DHT22;8265;52.622;13.296;2022-08-11T07:13:53;21.00;99.90
16313;DHT22;8265;52.622;13.296;2022-08-11T07:19:14;21.30;99.90
16313;DHT22;8265;52.622;13.296;2022-08-11T07:24:37;21.50;99.90
16313;DHT22;8265;52.622;13.296;2022-08-11T07:29:55;21.70;99.90
16313;DHT22;8265;52.622;13.296;2022-08-11T07:35:16;21.90;99.90
16313;DHT22;8265;52.622;13.296;2022-08-11T07:40:37;22.00;99.90
16313;DHT22;8265;52.622;13.296;2022-08-11T07:45:58;22.20;99.90
16313;DHT22;8265;52.622;13.296;2022-08-11T07:51:19;22.40;99.90
16313;DHT22;8265;52.622;13.296;2022-08-11T07:56:40;22.60;99.90
16313;DHT22;8265;52.622;13.296;2022-08-11T08:02:01;22.90;99.90
16313;DHT22;8265;52.622;13.296;2022-08-11T08:07:22;23.20;99.90
16313;DHT22;8265;52.622;13.296;2022-08-11T08:12:43;23.50;99.90
16313;DHT22;8265;52.622;13.296;2022-08-11T08:18:04;23.60;99.90
16313;DHT22;8265;52.622;13.296;2022-08-11T08:23:25;23.70;99.90
16313;DHT22;8265;52.622;13.296;2022-08-11T08:28:46;24.00;99.90
16313;DHT22;8265;52.622;13.296;2022-08-11T08:34:07;24.20;99.90
16313;DHT22;8265;52.622;13.296;2022-08-11T08:39:28;24.30;99.90
16313;DHT22;8265;52.622;13.296;2022-08-11T08:44:50;24.50;99.90
16313;DHT22;8265;52.622;13.296;2022-08-11T08:50:11;24.60;99.90
16313;DHT22;8265;52.622;13.296;2022-08-11T08:55:31;24.80;99.90
16313;DHT22;8265;52.622;13.296;2022-08-11T09:00:52;25.00;99.90
16313;DHT22;8265;52.622;13.296;2022-08-11T09:06:13;25.30;99.90
16313;DHT22;8265;52.622;13.296;2022-08-11T09:11:34;25.50;99.90
16313;DHT22;8265;52.622;13.296;2022-08-11T09:16:55;25.60;99.30
16313;DHT22;8265;52.622;13.296;2022-08-11T09:22:18;25.90;98.80
16313;DHT22;8265;52.622;13.296;2022-08-11T09:27:37;26.00;97.90
16313;DHT22;8265;52.622;13.296;2022-08-11T09:32:58;26.20;96.80
16313;DHT22;8265;52.622;13.296;2022-08-11T09:38:19;26.30;95.60
16313;DHT22;8265;52.622;13.296;2022-08-11T09:43:41;26.60;95.00
16313;DHT22;8265;52.622;13.296;2022-08-11T09:49:00;26.70;94.10
16313;DHT22;8265;52.622;13.296;2022-08-11T09:54:22;26.70;93.70
16313;DHT22;8265;52.622;13.296;2022-08-11T09:59:42;26.80;93.60
16313;DHT22;8265;52.622;13.296;2022-08-11T10:05:04;27.00;92.60
16313;DHT22;8265;52.622;13.296;2022-08-11T10:10:24;27.30;92.00
16313;DHT22;8265;52.622;13.296;2022-08-11T10:15:45;27.40;90.40
16313;DHT22;8265;52.622;13.296;2022-08-11T10:21:09;27.60;90.00
16313;DHT22;8265;52.622;13.296;2022-08-11T10:26:28;27.50;90.10
16313;DHT22;8265;52.622;13.296;2022-08-11T10:31:48;27.50;88.80
16313;DHT22;8265;52.622;13.296;2022-08-11T10:37:09;27.70;89.00
16313;DHT22;8265;52.622;13.296;2022-08-11T10:42:30;27.80;86.70
16313;DHT22;8265;52.622;13.296;2022-08-11T10:47:52;27.80;86.30
16313;DHT22;8265;52.622;13.296;2022-08-11T10:53:12;27.90;87.00
16313;DHT22;8265;52.622;13.296;2022-08-11T10:58:33;27.90;84.60
16313;DHT22;8265;52.622;13.296;2022-08-11T11:03:55;28.00;85.70
16313;DHT22;8265;52.622;13.296;2022-08-11T11:09:16;28.10;83.60
16313;DHT22;8265;52.622;13.296;2022-08-11T11:14:36;28.30;83.10
16313;DHT22;8265;52.622;13.296;2022-08-11T11:19:57;28.20;84.10
16313;DHT22;8265;52.622;13.296;2022-08-11T11:25:24;28.40;83.30
16313;DHT22;8265;52.622;13.296;2022-08-11T11:30:40;28.60;82.50
16313;DHT22;8265;52.622;13.296;2022-08-11T11:36:06;28.60;79.50
16313;DHT22;8265;52.622;13.296;2022-08-11T11:41:21;28.70;78.90
16313;DHT22;8265;52.622;13.296;2022-08-11T11:46:42;28.70;78.90
16313;DHT22;8265;52.622;13.296;2022-08-11T11:52:03;29.00;79.70
16313;DHT22;8265;52.622;13.296;2022-08-11T11:57:24;29.20;78.70
16313;DHT22;8265;52.622;13.296;2022-08-11T12:02:45;29.30;76.90
16313;DHT22;8265;52.622;13.296;2022-08-11T12:08:06;29.30;75.30
16313;DHT22;8265;52.622;13.296;2022-08-11T12:13:27;29.30;77.70
16313;DHT22;8265;52.622;13.296;2022-08-11T12:18:48;29.60;77.00
16313;DHT22;8265;52.622;13.296;2022-08-11T12:24:08;29.60;74.70
16313;DHT22;8265;52.622;13.296;2022-08-11T12:29:30;29.60;75.50
16313;DHT22;8265;52.622;13.296;2022-08-11T12:34:50;29.80;73.50
16313;DHT22;8265;52.622;13.296;2022-08-11T12:40:13;29.70;74.40
16313;DHT22;8265;52.622;13.296;2022-08-11T12:45:32;30.30;75.20
16313;DHT22;8265;52.622;13.296;2022-08-11T12:50:56;30.60;73.40
16313;DHT22;8265;52.622;13.296;2022-08-11T12:56:14;31.10;71.10
16313;DHT22;8265;52.622;13.296;2022-08-11T13:01:35;31.30;70.90
16313;DHT22;8265;52.622;13.296;2022-08-11T13:06:56;31.40;70.00
16313;DHT22;8265;52.622;13.296;2022-08-11T13:12:17;31.30;70.40
16313;DHT22;8265;52.622;13.296;2022-08-11T13:17:38;31.10;68.00
16313;DHT22;8265;52.622;13.296;2022-08-11T13:22:59;31.00;69.50
16313;DHT22;8265;52.622;13.296;2022-08-11T13:28:20;31.30;68.40
16313;DHT22;8265;52.622;13.296;2022-08-11T13:33:42;31.60;68.20
16313;DHT22;8265;52.622;13.296;2022-08-11T13:39:02;31.40;67.90
16313;DHT22;8265;52.622;13.296;2022-08-11T13:44:24;31.80;68.10
16313;DHT22;8265;52.622;13.296;2022-08-11T13:49:44;32.20;65.40
16313;DHT22;8265;52.622;13.296;2022-08-11T13:55:07;32.30;65.80
16313;DHT22;8265;52.622;13.296;2022-08-11T14:00:26;32.40;64.10
16313;DHT22;8265;52.622;13.296;2022-08-11T14:05:48;33.10;63.40
16313;DHT22;8265;52.622;13.296;2022-08-11T14:11:08;33.50;62.30
16313;DHT22;8265;52.622;13.296;2022-08-11T14:16:30;33.60;61.80
16313;DHT22;8265;52.622;13.296;2022-08-11T14:21:50;33.50;62.50
16313;DHT22;8265;52.622;13.296;2022-08-11T14:27:11;34.60;59.60
16313;DHT22;8265;52.622;13.296;2022-08-11T14:32:32;34.90;57.70
16313;DHT22;8265;52.622;13.296;2022-08-11T14:37:53;34.70;58.70
16313;DHT22;8265;52.622;13.296;2022-08-11T14:43:14;35.10;56.90
16313;DHT22;8265;52.622;13.296;2022-08-11T14:48:35;35.70;57.00
16313;DHT22;8265;52.622;13.296;2022-08-11T14:53:56;36.00;55.70
16313;DHT22;8265;52.622;13.296;2022-08-11T14:59:17;35.50;55.40
16313;DHT22;8265;52.622;13.296;2022-08-11T15:04:38;35.10;54.30
16313;DHT22;8265;52.622;13.296;2022-08-11T15:10:00;35.30;54.30
16313;DHT22;8265;52.622;13.296;2022-08-11T15:15:19;35.10;54.60
16313;DHT22;8265;52.622;13.296;2022-08-11T15:20:41;35.00;54.10
16313;DHT22;8265;52.622;13.296;2022-08-11T15:26:02;34.80;55.00
16313;DHT22;8265;52.622;13.296;2022-08-11T15:31:23;34.40;54.90
16313;DHT22;8265;52.622;13.296;2022-08-11T15:36:44;34.70;54.00
16313;DHT22;8265;52.622;13.296;2022-08-11T15:42:06;34.30;54.00
16313;DHT22;8265;52.622;13.296;2022-08-11T15:47:26;34.20;53.90
16313;DHT22;8265;52.622;13.296;2022-08-11T15:52:48;34.20;54.50
16313;DHT22;8265;52.622;13.296;2022-08-11T15:58:08;33.10;56.00
16313;DHT22;8265;52.622;13.296;2022-08-11T16:03:28;32.40;55.90
16313;DHT22;8265;52.622;13.296;2022-08-11T16:08:49;31.70;58.20
16313;DHT22;8265;52.622;13.296;2022-08-11T16:14:11;31.60;58.80
16313;DHT22;8265;52.622;13.296;2022-08-11T16:19:32;31.40;58.50
16313;DHT22;8265;52.622;13.296;2022-08-11T16:24:52;31.40;57.70
16313;DHT22;8265;52.622;13.296;2022-08-11T16:30:13;31.60;58.30
16313;DHT22;8265;52.622;13.296;2022-08-11T16:35:35;32.00;57.80
16313;DHT22;8265;52.622;13.296;2022-08-11T16:40:55;31.70;60.30
16313;DHT22;8265;52.622;13.296;2022-08-11T16:46:17;31.80;57.90
16313;DHT22;8265;52.622;13.296;2022-08-11T16:51:37;31.70;60.50
16313;DHT22;8265;52.622;13.296;2022-08-11T16:56:58;31.60;59.70
16313;DHT22;8265;52.622;13.296;2022-08-11T17:02:20;31.80;58.60
16313;DHT22;8265;52.622;13.296;2022-08-11T17:07:40;32.40;59.00
16313;DHT22;8265;52.622;13.296;2022-08-11T17:13:01;31.90;58.90
16313;DHT22;8265;52.622;13.296;2022-08-11T17:18:22;31.90;58.70
16313;DHT22;8265;52.622;13.296;2022-08-11T17:23:44;32.10;57.70
16313;DHT22;8265;52.622;13.296;2022-08-11T17:29:04;33.10;56.10
16313;DHT22;8265;52.622;13.296;2022-08-11T17:34:25;33.80;55.00
16313;DHT22;8265;52.622;13.296;2022-08-11T17:39:46;33.20;57.50
16313;DHT22;8265;52.622;13.296;2022-08-11T17:45:08;33.00;57.90
16313;DHT22;8265;52.622;13.296;2022-08-11T17:50:28;31.60;58.40
16313;DHT22;8265;52.622;13.296;2022-08-11T17:55:49;29.60;62.10
16313;DHT22;8265;52.622;13.296;2022-08-11T18:01:10;28.40;66.60
16313;DHT22;8265;52.622;13.296;2022-08-11T18:06:30;27.50;70.80
16313;DHT22;8265;52.622;13.296;2022-08-11T18:11:52;26.90;71.00
16313;DHT22;8265;52.622;13.296;2022-08-11T18:17:13;26.40;70.10
16313;DHT22;8265;52.622;13.296;2022-08-11T18:22:35;26.00;71.70
16313;DHT22;8265;52.622;13.296;2022-08-11T18:27:55;25.50;75.30
16313;DHT22;8265;52.622;13.296;2022-08-11T18:33:15;25.10;74.30
16313;DHT22;8265;52.622;13.296;2022-08-11T18:38:36;24.60;77.30
16313;DHT22;8265;52.622;13.296;2022-08-11T18:43:58;24.20;79.20
16313;DHT22;8265;52.622;13.296;2022-08-11T18:49:20;23.90;81.30
16313;DHT22;8265;52.622;13.296;2022-08-11T18:54:40;23.60;81.50
16313;DHT22;8265;52.622;13.296;2022-08-11T19:00:00;23.40;82.90
16313;DHT22;8265;52.622;13.296;2022-08-11T19:05:21;23.10;83.50
16313;DHT22;8265;52.622;13.296;2022-08-11T19:10:43;22.70;85.60
16313;DHT22;8265;52.622;13.296;2022-08-11T19:16:04;22.40;86.60
16313;DHT22;8265;52.622;13.296;2022-08-11T19:21:24;22.20;86.80
16313;DHT22;8265;52.622;13.296;2022-08-11T19:26:45;22.00;87.60
16313;DHT22;8265;52.622;13.296;2022-08-11T19:32:06;21.80;88.50
16313;DHT22;8265;52.622;13.296;2022-08-11T19:37:27;21.80;90.10
16313;DHT22;8265;52.622;13.296;2022-08-11T19:42:48;21.70;88.70
16313;DHT22;8265;52.622;13.296;2022-08-11T19:48:09;21.30;90.10
16313;DHT22;8265;52.622;13.296;2022-08-11T19:53:30;21.00;90.70
16313;DHT22;8265;52.622;13.296;2022-08-11T19:58:51;20.90;90.80
16313;DHT22;8265;52.622;13.296;2022-08-11T20:04:12;20.70;91.40
16313;DHT22;8265;52.622;13.296;2022-08-11T20:09:33;20.70;92.10
16313;DHT22;8265;52.622;13.296;2022-08-11T20:14:54;20.50;91.70
16313;DHT22;8265;52.622;13.296;2022-08-11T20:20:15;20.40;91.90
16313;DHT22;8265;52.622;13.296;2022-08-11T20:25:36;20.40;92.20
16313;DHT22;8265;52.622;13.296;2022-08-11T20:30:57;20.10;92.20
16313;DHT22;8265;52.622;13.296;2022-08-11T20:36:18;20.00;93.60
16313;DHT22;8265;52.622;13.296;2022-08-11T20:41:39;20.40;93.20
16313;DHT22;8265;52.622;13.296;2022-08-11T20:46:59;20.40;91.90
16313;DHT22;8265;52.622;13.296;2022-08-11T20:52:22;20.30;92.60
16313;DHT22;8265;52.622;13.296;2022-08-11T20:57:42;20.10;93.10
16313;DHT22;8265;52.622;13.296;2022-08-11T21:03:03;20.00;92.40
16313;DHT22;8265;52.622;13.296;2022-08-11T21:08:26;19.90;92.50
16313;DHT22;8265;52.622;13.296;2022-08-11T21:13:45;19.80;92.60
16313;DHT22;8265;52.622;13.296;2022-08-11T21:19:09;19.80;93.10
16313;DHT22;8265;52.622;13.296;2022-08-11T21:24:27;19.70;92.80
16313;DHT22;8265;52.622;13.296;2022-08-11T21:29:47;19.70;93.40
16313;DHT22;8265;52.622;13.296;2022-08-11T21:35:09;19.50;93.60
16313;DHT22;8265;52.622;13.296;2022-08-11T21:40:29;19.50;93.50
16313;DHT22;8265;52.622;13.296;2022-08-11T21:45:50;19.40;93.80
16313;DHT22;8265;52.622;13.296;2022-08-11T21:51:11;19.30;94.70
16313;DHT22;8265;52.622;13.296;2022-08-11T21:56:32;19.20;94.90
16313;DHT22;8265;52.622;13.296;2022-08-11T22:01:53;19.20;95.40
16313;DHT22;8265;52.622;13.296;2022-08-11T22:07:14;19.20;95.40
16313;DHT22;8265;52.622;13.296;2022-08-11T22:12:35;19.20;95.50
16313;DHT22;8265;52.622;13.296;2022-08-11T22:17:56;19.20;95.80
16313;DHT22;8265;52.622;13.296;2022-08-11T22:23:17;19.00;96.40
16313;DHT22;8265;52.622;13.296;2022-08-11T22:28:38;18.90;96.90
16313;DHT22;8265;52.622;13.296;2022-08-11T22:33:59;18.80;97.90
16313;DHT22;8265;52.622;13.296;2022-08-11T22:39:20;18.70;98.20
16313;DHT22;8265;52.622;13.296;2022-08-11T22:44:41;18.50;98.50
16313;DHT22;8265;52.622;13.296;2022-08-11T22:50:02;18.70;99.10
16313;DHT22;8265;52.622;13.296;2022-08-11T22:55:23;18.60;99.50
16313;DHT22;8265;52.622;13.296;2022-08-11T23:00:44;18.50;99.60
16313;DHT22;8265;52.622;13.296;2022-08-11T23:06:05;18.40;99.90
16313;DHT22;8265;52.622;13.296;2022-08-11T23:11:26;18.30;99.90
16313;DHT22;8265;52.622;13.296;2022-08-11T23:16:47;18.00;99.90
16313;DHT22;8265;52.622;13.296;2022-08-11T23:22:08;17.90;99.90
16313;DHT22;8265;52.622;13.296;2022-08-11T23:27:29;18.00;99.90
16313;DHT22;8265;52.622;13.296;2022-08-11T23:32:51;17.80;99.90
16313;DHT22;8265;52.622;13.296;2022-08-11T23:38:11;17.50;99.90
16313;DHT22;8265;52.622;13.296;2022-08-11T23:43:32;17.60;99.90
16313;DHT22;8265;52.622;13.296;2022-08-11T23:48:54;17.60;99.90
16313;DHT22;8265;52.622;13.296;2022-08-11T23:54:13;17.60;99.90
16313;DHT22;8265;52.622;13.296;2022-08-11T23:59:35;17.50;99.90
